createdAt,value
2023-05-02T00:00:35.256Z,10.5
2023-05-02T00:01:34.704Z,9.8
2023-05-02T00:02:35.290Z,9.7
2023-05-02T00:03:34.877Z,10.0
2023-05-02T00:07:35.104Z,9.4
2023-05-02T00:08:35.463Z,8.9
2023-05-02T00:09:35.175Z,9.5
2023-05-02T00:10:34.738Z,9.4
2023-05-02T00:11:35.918Z,10.5
2023-05-02T00:14:35.880Z,9.7
2023-05-02T00:15:34.903Z,11.1
2023-05-02T00:16:35.026Z,9.4
2023-05-02T00:17:35.195Z,9.9
2023-05-02T00:19:34.692Z,11.1
2023-05-02T00:22:34.839Z,11.0
2023-05-02T00:23:34.682Z,10.3
2023-05-02T00:24:34.873Z,11.5
2023-05-02T00:25:34.559Z,10.3
2023-05-02T00:26:35.226Z,10.4
2023-05-02T00:27:35.645Z,10.4
2023-05-02T00:34:35.183Z,11.1
2023-05-02T00:35:34.548Z,10.9
2023-05-02T00:36:34.721Z,11.3
2023-05-02T00:37:34.817Z,11.5
2023-05-02T00:38:34.399Z,11.4
2023-05-02T00:39:36.328Z,11.1
2023-05-02T00:40:35.660Z,11.3
2023-05-02T00:41:34.806Z,10.9
2023-05-02T00:42:35.391Z,11.2
2023-05-02T00:43:37.289Z,10.6
2023-05-02T00:47:34.849Z,10.5
2023-05-02T00:48:34.630Z,10.7
2023-05-02T00:50:34.740Z,10.0
2023-05-02T00:51:35.128Z,9.8
2023-05-02T00:52:34.343Z,11.0
2023-05-02T00:53:34.341Z,9.5
2023-05-02T00:54:53.388Z,10.4
2023-05-02T00:55:34.508Z,10.4
2023-05-02T00:56:42.331Z,9.9
2023-05-02T00:57:36.044Z,10.1
2023-05-02T00:58:36.018Z,9.7
2023-05-02T00:59:35.947Z,10.0
2023-05-02T01:00:36.898Z,9.8
2023-05-02T01:01:36.132Z,10.3
2023-05-02T01:02:37.427Z,10.4
2023-05-02T01:03:34.947Z,10.5
2023-05-02T01:04:34.486Z,10.0
2023-05-02T01:05:34.480Z,10.0
2023-05-02T01:06:35.001Z,9.9
2023-05-02T01:07:34.781Z,9.0
2023-05-02T01:08:34.458Z,10.6
2023-05-02T01:09:35.089Z,10.1
2023-05-02T01:10:34.549Z,10.7
2023-05-02T01:11:35.914Z,11.2
2023-05-02T01:13:34.886Z,10.1
2023-05-02T01:14:34.650Z,10.8
2023-05-02T01:15:35.228Z,10.7
2023-05-02T01:18:35.375Z,11.5
2023-05-02T01:19:34.834Z,10.8
2023-05-02T01:20:34.668Z,12.0
2023-05-02T01:21:34.316Z,11.4
2023-05-02T01:22:34.891Z,11.2
2023-05-02T01:23:35.127Z,11.5
2023-05-02T01:24:34.697Z,11.1
2023-05-02T01:25:34.903Z,10.7
2023-05-02T01:26:35.653Z,11.8
2023-05-02T01:27:34.585Z,11.0
2023-05-02T01:28:34.757Z,11.4
2023-05-02T01:29:36.055Z,12.1
2023-05-02T01:31:35.238Z,12.0
2023-05-02T01:39:35.158Z,12.3
2023-05-02T01:40:35.034Z,12.7
2023-05-02T01:41:36.052Z,12.5
2023-05-02T01:42:34.995Z,13.1
2023-05-02T01:43:42.088Z,12.4
2023-05-02T01:53:34.691Z,12.9
2023-05-02T01:54:34.491Z,12.8
2023-05-02T01:57:34.538Z,12.2
2023-05-02T01:58:35.407Z,12.5
2023-05-02T02:05:34.889Z,12.5
2023-05-02T02:06:34.703Z,14.0
2023-05-02T02:07:34.494Z,12.8
2023-05-02T02:08:34.654Z,12.2
2023-05-02T02:09:34.927Z,11.9
2023-05-02T02:10:34.674Z,12.8
2023-05-02T02:11:43.440Z,13.3
2023-05-02T02:12:34.727Z,13.0
2023-05-02T02:13:34.773Z,12.5
2023-05-02T02:16:34.653Z,12.9
2023-05-02T02:17:34.785Z,12.8
2023-05-02T02:18:34.825Z,12.9
2023-05-02T02:19:34.341Z,12.4
2023-05-02T02:22:35.094Z,13.8
2023-05-02T02:23:35.331Z,12.4
2023-05-02T02:24:34.870Z,12.6
2023-05-02T02:25:55.999Z,11.5
2023-05-02T02:26:34.462Z,12.5
2023-05-02T02:27:34.270Z,11.7
2023-05-02T02:28:34.490Z,12.4
2023-05-02T02:29:34.761Z,11.8
2023-05-02T02:30:34.471Z,12.2
2023-05-02T02:31:35.145Z,12.5
2023-05-02T02:32:37.769Z,11.9
2023-05-02T02:33:34.545Z,11.8
2023-05-02T02:34:34.562Z,12.6
2023-05-02T02:35:36.902Z,12.7
2023-05-02T02:36:42.445Z,11.1
2023-05-02T02:37:34.749Z,11.1
2023-05-02T02:38:34.738Z,12.2
2023-05-02T02:39:34.591Z,11.7
2023-05-02T02:40:34.766Z,11.4
2023-05-02T02:41:34.765Z,11.2
2023-05-02T02:42:35.031Z,11.7
2023-05-02T02:43:34.487Z,10.8
2023-05-02T02:44:36.124Z,11.0
2023-05-02T02:45:34.493Z,11.7
2023-05-02T02:48:35.677Z,11.5
2023-05-02T02:49:34.973Z,11.5
2023-05-02T02:52:36.202Z,12.2
2023-05-02T02:53:34.759Z,10.9
2023-05-02T02:54:34.855Z,10.2
2023-05-02T02:55:34.491Z,12.0
2023-05-02T02:56:34.758Z,10.3
2023-05-02T02:57:34.503Z,11.6
2023-05-02T02:58:34.712Z,11.2
2023-05-02T02:59:35.231Z,11.4
2023-05-02T03:00:34.534Z,10.8
2023-05-02T03:01:34.672Z,10.8
2023-05-02T03:02:34.468Z,11.0
2023-05-02T03:03:34.654Z,10.3
2023-05-02T03:04:34.544Z,11.3
2023-05-02T03:05:35.689Z,11.7
2023-05-02T03:06:34.863Z,11.1
2023-05-02T03:07:35.078Z,10.8
2023-05-02T03:08:34.469Z,11.5
2023-05-02T03:09:34.411Z,10.2
2023-05-02T03:10:34.594Z,10.7
2023-05-02T03:11:34.819Z,11.2
2023-05-02T03:12:34.405Z,10.1
2023-05-02T03:13:34.760Z,11.2
2023-05-02T03:14:34.761Z,11.1
2023-05-02T03:15:34.773Z,10.1
2023-05-02T03:16:34.891Z,11.1
2023-05-02T03:17:35.355Z,10.5
2023-05-02T03:20:36.878Z,10.7
2023-05-02T03:26:34.536Z,11.4
2023-05-02T03:27:35.935Z,10.6
2023-05-02T03:28:34.653Z,9.9
2023-05-02T03:29:34.352Z,9.8
2023-05-02T03:34:34.408Z,9.6
2023-05-02T03:35:34.431Z,9.6
2023-05-02T03:36:35.652Z,10.3
2023-05-02T03:37:35.310Z,9.9
2023-05-02T03:39:34.584Z,10.0
2023-05-02T03:40:35.063Z,9.8
2023-05-02T03:41:34.561Z,10.0
2023-05-02T03:42:34.453Z,9.6
2023-05-02T03:43:34.402Z,10.2
2023-05-02T03:44:34.721Z,9.8
2023-05-02T03:45:35.322Z,10.3
2023-05-02T03:46:34.448Z,9.6
2023-05-02T03:47:34.777Z,10.1
2023-05-02T03:48:34.738Z,9.8
2023-05-02T03:49:34.637Z,10.2
2023-05-02T03:50:37.807Z,10.8
2023-05-02T03:51:38.050Z,9.9
2023-05-02T03:52:36.273Z,10.4
2023-05-02T03:53:40.228Z,10.0
2023-05-02T03:55:36.761Z,11.1
2023-05-02T03:56:36.481Z,10.1
2023-05-02T03:57:36.403Z,10.3
2023-05-02T03:58:36.110Z,9.9
2023-05-02T03:59:36.288Z,10.6
2023-05-02T04:00:36.522Z,11.1
2023-05-02T04:01:36.584Z,9.6
2023-05-02T04:02:36.149Z,10.4
2023-05-02T04:03:36.892Z,9.5
2023-05-02T04:04:36.958Z,9.2
2023-05-02T04:05:36.516Z,9.7
2023-05-02T04:06:36.908Z,9.1
2023-05-02T04:07:36.346Z,9.8
2023-05-02T04:08:36.699Z,10.2
2023-05-02T04:09:53.915Z,9.0
2023-05-02T04:10:35.960Z,9.8
2023-05-02T04:11:38.123Z,9.7
2023-05-02T04:12:36.254Z,9.7
2023-05-02T04:23:36.318Z,10.2
2023-05-02T04:24:37.794Z,10.4
2023-05-02T04:25:36.963Z,11.1
2023-05-02T04:26:36.255Z,11.6
2023-05-02T04:27:36.247Z,10.6
2023-05-02T04:28:36.660Z,10.6
2023-05-02T04:29:37.610Z,11.0
2023-05-02T04:30:36.744Z,10.3
2023-05-02T04:31:36.595Z,10.4
2023-05-02T04:35:36.452Z,10.3
2023-05-02T04:37:36.470Z,9.6
2023-05-02T04:38:36.002Z,9.2
2023-05-02T04:39:36.643Z,8.9
2023-05-02T04:40:36.371Z,9.0
2023-05-02T04:41:36.199Z,9.0
2023-05-02T04:42:35.927Z,8.9
2023-05-02T04:43:37.161Z,9.4
2023-05-02T04:44:37.419Z,9.8
2023-05-02T04:45:37.309Z,9.2
2023-05-02T04:46:36.583Z,8.8
2023-05-02T04:50:36.629Z,8.9
2023-05-02T04:51:36.670Z,8.5
2023-05-02T04:52:36.374Z,8.8
2023-05-02T04:53:37.192Z,7.6
2023-05-02T04:54:37.207Z,8.7
2023-05-02T05:52:43.195Z,9.2
2023-05-02T05:53:43.216Z,4.7
2023-05-02T05:54:43.275Z,6.8
2023-05-02T05:55:43.160Z,7.8
2023-05-02T05:56:43.166Z,7.9
2023-05-02T05:57:43.213Z,10.3
2023-05-02T05:58:43.139Z,11.5
2023-05-02T05:59:43.143Z,9.4
2023-05-02T06:00:43.153Z,6.9
2023-05-02T06:02:02.414Z,7.2
2023-05-02T06:02:43.407Z,6.0
2023-05-02T06:03:43.260Z,5.2
2023-05-02T06:04:43.218Z,5.7
2023-05-02T06:05:43.117Z,5.3
2023-05-02T06:06:43.198Z,5.2
2023-05-02T06:07:43.143Z,4.6
2023-05-02T06:08:43.198Z,5.9
2023-05-02T06:09:43.149Z,4.9
2023-05-02T06:10:43.289Z,5.4
2023-05-02T06:11:43.137Z,5.7
2023-05-02T06:12:43.128Z,5.9
2023-05-02T06:14:43.172Z,5.6
2023-05-02T06:15:43.225Z,5.5
2023-05-02T06:16:43.128Z,5.4
2023-05-02T06:17:43.232Z,4.9
2023-05-02T06:19:43.144Z,5.2
2023-05-02T06:20:43.170Z,4.8
2023-05-02T06:21:43.114Z,4.1
2023-05-02T06:22:43.114Z,4.2
2023-05-02T06:23:43.157Z,4.6
2023-05-02T06:24:43.273Z,4.5
2023-05-02T06:25:43.113Z,4.3
2023-05-02T06:26:43.103Z,4.6
2023-05-02T06:27:43.142Z,4.7
2023-05-02T06:28:43.256Z,4.3
2023-05-02T06:29:43.141Z,4.2
2023-05-02T06:30:43.113Z,4.4
2023-05-02T06:31:43.149Z,4.2
2023-05-02T06:32:43.166Z,4.2
2023-05-02T06:33:43.105Z,4.1
2023-05-02T06:34:43.102Z,4.7
2023-05-02T06:35:43.209Z,4.5
2023-05-02T06:36:43.111Z,4.2
2023-05-02T06:37:43.136Z,4.4
2023-05-02T06:38:43.074Z,4.5
2023-05-02T06:39:43.092Z,4.7
2023-05-02T06:40:43.083Z,3.9
2023-05-02T06:41:43.121Z,3.9
2023-05-02T06:42:43.159Z,4.2
2023-05-02T06:43:43.175Z,4.7
2023-05-02T06:44:43.077Z,3.4
2023-05-02T06:45:43.110Z,3.5
2023-05-02T06:46:43.309Z,3.6
2023-05-02T06:47:43.104Z,3.9
2023-05-02T06:48:43.110Z,4.2
2023-05-02T06:49:43.064Z,4.1
2023-05-02T06:50:43.075Z,4.1
2023-05-02T06:51:43.046Z,4.3
2023-05-02T06:52:43.050Z,4.4
2023-05-02T06:53:43.106Z,4.0
2023-05-02T06:54:43.070Z,5.5
2023-05-02T06:55:43.113Z,4.2
2023-05-02T06:56:43.075Z,4.8
2023-05-02T06:57:43.245Z,4.1
2023-05-02T06:58:43.067Z,4.9
2023-05-02T06:59:43.353Z,6.5
2023-05-02T07:00:43.758Z,5.1
2023-05-02T07:01:43.099Z,5.3
2023-05-02T07:02:43.163Z,5.7
2023-05-02T07:03:43.494Z,5.4
2023-05-02T07:04:43.619Z,4.7
2023-05-02T07:05:43.289Z,4.8
2023-05-02T07:21:15.368Z,8.7
2023-05-02T07:21:43.059Z,3.0
2023-05-02T07:22:43.248Z,3.5
2023-05-02T07:23:43.011Z,3.9
2023-05-02T07:24:43.023Z,3.3
2023-05-02T07:25:43.017Z,3.7
2023-05-02T07:26:43.018Z,3.5
2023-05-02T07:27:43.054Z,3.3
2023-05-02T07:28:42.991Z,3.1
2023-05-02T07:29:43.081Z,3.0
2023-05-02T07:30:43.017Z,3.4
2023-05-02T07:31:43.067Z,3.0
2023-05-02T07:32:45.284Z,3.2
2023-05-02T07:33:43.011Z,2.9
2023-05-02T07:34:43.046Z,3.0
2023-05-02T07:35:43.103Z,2.5
2023-05-02T07:36:43.078Z,3.2
2023-05-02T07:37:43.093Z,3.4
2023-05-02T07:38:42.994Z,3.4
2023-05-02T07:39:43.000Z,3.0
2023-05-02T07:40:43.013Z,2.8
2023-05-02T07:41:43.198Z,2.9
2023-05-02T07:42:43.611Z,2.7
2023-05-02T07:43:43.172Z,2.5
2023-05-02T07:44:43.097Z,2.7
2023-05-02T07:45:43.656Z,2.4
2023-05-02T07:46:43.307Z,3.1
2023-05-02T07:47:43.250Z,2.9
2023-05-02T07:48:43.066Z,3.1
2023-05-02T07:49:43.213Z,3.2
2023-05-02T07:50:43.122Z,2.8
2023-05-02T07:51:43.004Z,3.2
2023-05-02T07:52:43.171Z,2.8
2023-05-02T07:53:43.030Z,3.2
2023-05-02T07:54:43.028Z,3.0
2023-05-02T07:55:43.017Z,3.6
2023-05-02T07:56:43.101Z,3.0
2023-05-02T07:57:42.979Z,2.9
2023-05-02T07:58:43.613Z,2.9
2023-05-02T07:59:44.012Z,3.0
2023-05-02T08:00:43.903Z,3.1
2023-05-02T08:01:43.030Z,3.0
2023-05-02T08:02:43.905Z,2.8
2023-05-02T08:03:43.157Z,3.5
2023-05-02T08:04:43.294Z,3.7
2023-05-02T08:05:42.983Z,3.5
2023-05-02T08:06:43.025Z,3.2
2023-05-02T08:07:43.219Z,3.7
2023-05-02T08:08:45.505Z,3.0
2023-05-02T08:09:43.070Z,2.9
2023-05-02T08:10:43.019Z,2.7
2023-05-02T08:11:42.969Z,2.8
2023-05-02T08:12:43.049Z,3.0
2023-05-02T08:13:43.191Z,2.6
2023-05-02T08:14:52.051Z,2.4
2023-05-02T08:15:43.445Z,2.3
2023-05-02T08:19:44.338Z,3.3
2023-05-02T08:20:43.071Z,2.3
2023-05-02T08:21:42.982Z,2.5
2023-05-02T08:22:43.314Z,2.6
2023-05-02T08:23:47.505Z,2.3
2023-05-02T08:24:42.962Z,2.4
2023-05-02T08:25:47.108Z,2.1
2023-05-02T08:26:42.964Z,2.5
2023-05-02T08:27:42.971Z,2.2
2023-05-02T08:28:42.919Z,2.3
2023-05-02T08:29:42.926Z,2.1
2023-05-02T08:30:42.955Z,2.3
2023-05-02T08:31:43.383Z,2.7
2023-05-02T08:32:51.932Z,2.3
2023-05-02T08:33:42.984Z,2.6
2023-05-02T08:34:42.935Z,2.2
2023-05-02T08:35:42.988Z,2.3
2023-05-02T08:36:43.052Z,2.1
2023-05-02T08:37:43.192Z,2.6
2023-05-02T08:38:43.625Z,2.1
2023-05-02T08:39:43.040Z,2.1
2023-05-02T08:40:43.447Z,1.8
2023-05-02T08:41:42.932Z,2.0
2023-05-02T08:42:42.990Z,2.4
2023-05-02T08:43:43.445Z,2.0
2023-05-02T08:44:42.942Z,2.4
2023-05-02T08:45:43.143Z,2.3
2023-05-02T08:46:42.949Z,2.3
2023-05-02T08:47:43.028Z,2.3
2023-05-02T08:48:42.943Z,2.0
2023-05-02T08:49:42.985Z,1.9
2023-05-02T08:50:42.989Z,2.1
2023-05-02T08:51:42.919Z,2.0
2023-05-02T08:52:42.903Z,1.7
2023-05-02T08:55:56.025Z,2.1
2023-05-02T08:56:55.996Z,2.2
2023-05-02T08:57:56.057Z,2.4
2023-05-02T08:58:56.030Z,2.0
2023-05-02T08:59:55.988Z,2.1
2023-05-02T09:00:56.278Z,2.3
2023-05-02T09:01:56.055Z,2.0
2023-05-02T09:02:56.009Z,2.5
2023-05-02T09:03:56.068Z,2.5
2023-05-02T09:04:56.099Z,2.2
2023-05-02T09:05:56.272Z,2.4
2023-05-02T09:06:56.026Z,2.4
2023-05-02T09:07:56.005Z,2.2
2023-05-02T09:08:56.166Z,2.1
2023-05-02T09:09:56.003Z,1.9
2023-05-02T09:10:56.023Z,1.9
2023-05-02T09:11:56.032Z,2.3
2023-05-02T09:12:57.065Z,2.3
2023-05-02T09:13:55.998Z,2.0
2023-05-02T09:14:55.998Z,2.2
2023-05-02T09:15:56.015Z,2.2
2023-05-02T09:16:56.046Z,2.3
2023-05-02T09:17:56.019Z,1.9
2023-05-02T09:18:55.960Z,2.4
2023-05-02T09:19:56.078Z,2.5
2023-05-02T09:20:55.979Z,2.1
2023-05-02T09:21:55.996Z,2.2
2023-05-02T09:22:55.999Z,2.1
2023-05-02T09:23:55.964Z,2.3
2023-05-02T09:24:56.005Z,2.5
2023-05-02T09:25:56.016Z,2.5
2023-05-02T09:26:55.948Z,2.8
2023-05-02T09:27:55.955Z,2.2
2023-05-02T09:28:55.975Z,2.5
2023-05-02T09:29:55.996Z,2.5
2023-05-02T09:30:56.217Z,2.6
2023-05-02T09:31:56.750Z,2.3
2023-05-02T09:32:56.325Z,2.1
2023-05-02T09:33:55.984Z,2.4
2023-05-02T09:34:56.027Z,2.3
2023-05-02T09:35:56.033Z,2.2
2023-05-02T09:36:55.969Z,2.5
2023-05-02T09:37:55.923Z,2.8
2023-05-02T09:38:55.943Z,2.2
2023-05-02T09:39:55.980Z,2.5
2023-05-02T09:40:56.176Z,2.8
2023-05-02T09:41:56.064Z,2.5
2023-05-02T09:42:55.941Z,2.8
2023-05-02T09:43:55.943Z,2.5
2023-05-02T09:44:55.988Z,2.7
2023-05-02T09:45:55.960Z,2.5
2023-05-02T09:46:55.992Z,2.4
2023-05-02T09:47:55.998Z,2.5
2023-05-02T09:48:56.086Z,2.6
2023-05-02T09:49:55.970Z,2.3
2023-05-02T09:50:55.948Z,2.2
2023-05-02T09:51:55.917Z,2.2
2023-05-02T09:52:56.095Z,2.6
2023-05-02T09:53:55.942Z,2.2
2023-05-02T09:54:55.946Z,2.9
2023-05-02T09:55:55.960Z,2.4
2023-05-02T09:56:55.926Z,2.4
2023-05-02T09:57:55.924Z,2.7
2023-05-02T09:58:55.934Z,2.7
2023-05-02T09:59:56.327Z,2.6
2023-05-02T10:01:56.196Z,2.8
2023-05-02T10:02:55.938Z,2.7
2023-05-02T10:03:56.041Z,2.7
2023-05-02T10:04:55.939Z,2.7
2023-05-02T10:05:55.974Z,2.6
2023-05-02T10:07:55.947Z,3.1
2023-05-02T10:08:55.972Z,3.2
2023-05-02T10:10:18.698Z,4.2
2023-05-02T10:10:55.945Z,3.5
2023-05-02T10:11:55.930Z,3.8
2023-05-02T10:12:55.994Z,3.7
2023-05-02T10:13:55.905Z,4.2
2023-05-02T10:14:59.827Z,5.4
2023-05-02T10:15:55.965Z,6.4
2023-05-02T10:16:55.898Z,6.2
2023-05-02T10:17:55.961Z,4.9
2023-05-02T10:18:55.943Z,4.6
2023-05-02T10:19:55.917Z,5.5
2023-05-02T10:20:55.935Z,4.9
2023-05-02T10:21:55.874Z,4.2
2023-05-02T10:22:55.916Z,6.5
2023-05-02T10:23:55.980Z,7.7
2023-05-02T10:24:55.894Z,5.9
2023-05-02T10:26:02.001Z,5.3
2023-05-02T10:26:55.886Z,4.7
2023-05-02T10:27:55.918Z,4.4
2023-05-02T10:28:55.868Z,4.7
2023-05-02T10:29:55.950Z,5.6
2023-05-02T10:30:55.873Z,4.4
2023-05-02T10:31:56.042Z,5.4
2023-05-02T10:32:56.021Z,5.4
2023-05-02T10:33:55.887Z,5.2
2023-05-02T10:34:55.920Z,5.5
2023-05-02T10:35:55.912Z,6.0
2023-05-02T10:36:56.116Z,5.7
2023-05-02T10:37:56.115Z,4.7
2023-05-02T10:38:55.948Z,4.6
2023-05-02T10:39:55.970Z,6.0
2023-05-02T10:40:55.909Z,5.8
2023-05-02T10:41:55.879Z,5.7
2023-05-02T10:42:55.881Z,5.7
2023-05-02T10:43:55.890Z,5.0
2023-05-02T10:44:55.881Z,5.1
2023-05-02T10:45:55.881Z,5.0
2023-05-02T10:46:55.980Z,4.4
2023-05-02T10:47:55.943Z,4.3
2023-05-02T10:48:55.894Z,4.0
2023-05-02T10:49:55.860Z,3.8
2023-05-02T10:50:55.931Z,4.3
2023-05-02T10:51:55.880Z,4.2
2023-05-02T10:52:55.896Z,4.4
2023-05-02T10:53:55.869Z,4.7
2023-05-02T10:54:55.847Z,4.6
2023-05-02T10:55:55.821Z,4.9
2023-05-02T10:56:55.835Z,5.2
2023-05-02T10:57:55.855Z,4.9
2023-05-02T10:58:55.985Z,4.6
2023-05-02T10:59:55.851Z,6.0
2023-05-02T11:00:55.923Z,5.5
2023-05-02T11:01:55.884Z,4.6
2023-05-02T11:02:55.968Z,4.9
2023-05-02T11:03:55.916Z,4.8
2023-05-02T11:04:55.848Z,4.8
2023-05-02T11:05:55.889Z,5.6
2023-05-02T11:06:55.854Z,5.0
2023-05-02T11:07:55.867Z,4.6
2023-05-02T11:08:55.942Z,4.7
2023-05-02T11:09:55.941Z,3.8
2023-05-02T11:10:55.872Z,4.6
2023-05-02T11:11:55.905Z,4.1
2023-05-02T11:12:55.843Z,4.6
2023-05-02T11:13:55.845Z,3.6
2023-05-02T11:14:55.908Z,4.1
2023-05-02T11:15:55.801Z,4.4
2023-05-02T11:16:55.900Z,4.7
2023-05-02T11:17:56.104Z,5.6
2023-05-02T11:18:55.835Z,4.4
2023-05-02T11:19:55.897Z,3.9
2023-05-02T11:20:55.973Z,3.9
2023-05-02T11:21:55.841Z,4.3
2023-05-02T11:22:55.872Z,4.2
2023-05-02T11:23:55.869Z,3.8
2023-05-02T11:24:55.809Z,4.9
2023-05-02T11:25:55.818Z,4.1
2023-05-02T11:26:55.811Z,4.8
2023-05-02T11:27:56.198Z,5.2
2023-05-02T11:28:55.839Z,5.1
2023-05-02T11:29:55.804Z,4.8
2023-05-02T11:30:56.703Z,4.8
2023-05-02T11:31:56.023Z,4.2
2023-05-02T11:32:55.853Z,4.4
2023-05-02T11:33:56.044Z,4.1
2023-05-02T11:34:55.778Z,4.5
2023-05-02T11:35:55.881Z,4.3
2023-05-02T11:36:55.806Z,4.2
2023-05-02T11:37:55.784Z,4.2
2023-05-02T11:38:55.769Z,4.4
2023-05-02T11:39:55.874Z,3.7
2023-05-02T11:40:55.851Z,4.0
2023-05-02T11:41:55.775Z,4.0
2023-05-02T11:42:55.941Z,3.9
2023-05-02T11:43:55.803Z,4.5
2023-05-02T11:45:55.866Z,3.6
2023-05-02T11:46:55.772Z,4.0
2023-05-02T11:47:55.817Z,3.8
2023-05-02T11:48:55.777Z,4.2
2023-05-02T11:49:55.843Z,3.4
2023-05-02T11:50:55.988Z,3.8
2023-05-02T11:51:56.258Z,3.3
2023-05-02T11:52:55.808Z,4.1
2023-05-02T11:53:55.918Z,3.6
2023-05-02T11:54:55.798Z,3.6
2023-05-02T11:55:55.834Z,3.4
2023-05-02T11:56:55.780Z,4.0
2023-05-02T11:57:55.745Z,3.5
2023-05-02T12:01:06.304Z,4.3
2023-05-02T12:01:55.815Z,5.5
2023-05-02T12:02:56.199Z,6.7
2023-05-02T12:03:55.799Z,7.1
2023-05-02T12:04:55.961Z,7.7
2023-05-02T12:05:55.841Z,5.2
2023-05-02T12:06:55.891Z,4.7
2023-05-02T12:07:56.068Z,4.7
2023-05-02T12:08:55.820Z,3.8
2023-05-02T12:09:55.841Z,3.8
2023-05-02T12:10:55.758Z,3.6
2023-05-02T12:11:55.818Z,5.2
2023-05-02T12:12:55.743Z,4.6
2023-05-02T12:13:55.744Z,4.5
2023-05-02T12:14:55.765Z,4.6
2023-05-02T12:15:56.096Z,4.2
2023-05-02T12:16:55.768Z,4.8
2023-05-02T12:17:55.763Z,4.2
2023-05-02T12:18:55.918Z,4.2
2023-05-02T12:19:55.764Z,4.1
2023-05-02T12:20:56.206Z,3.6
2023-05-02T12:21:55.787Z,4.2
2023-05-02T12:22:55.772Z,5.0
2023-05-02T12:23:55.724Z,7.7
2023-05-02T12:24:55.771Z,6.1
2023-05-02T12:25:55.749Z,6.1
2023-05-02T12:26:55.783Z,5.0
2023-05-02T12:27:55.752Z,5.1
2023-05-02T12:28:55.847Z,4.8
2023-05-02T12:29:55.736Z,4.7
2023-05-02T12:30:55.826Z,4.4
2023-05-02T12:31:55.763Z,4.5
2023-05-02T12:32:55.793Z,4.3
2023-05-02T12:33:55.710Z,4.4
2023-05-02T12:34:55.762Z,3.8
2023-05-02T12:35:55.773Z,4.1
2023-05-02T12:36:55.782Z,3.9
2023-05-02T12:37:55.918Z,3.7
2023-05-02T12:38:55.751Z,3.5
2023-05-02T12:39:55.798Z,3.7
2023-05-02T12:40:55.741Z,4.0
2023-05-02T12:41:55.698Z,5.3
2023-05-02T12:42:55.726Z,3.7
2023-05-02T12:43:55.772Z,3.7
2023-05-02T12:44:55.710Z,3.4
2023-05-02T12:45:55.749Z,3.8
2023-05-02T12:46:55.717Z,3.3
2023-05-02T12:47:55.804Z,3.5
2023-05-02T12:48:55.849Z,3.9
2023-05-02T12:49:55.767Z,3.6
2023-05-02T12:50:55.788Z,4.0
2023-05-02T12:51:55.715Z,3.3
2023-05-02T12:52:55.695Z,3.2
2023-05-02T12:53:55.718Z,2.8
2023-05-02T12:54:55.839Z,3.4
2023-05-02T12:55:55.679Z,2.1
2023-05-02T12:56:55.737Z,2.3
2023-05-02T12:57:55.713Z,2.2
2023-05-02T12:58:55.705Z,2.6
2023-05-02T12:59:55.878Z,2.8
2023-05-02T13:00:55.783Z,3.4
2023-05-02T13:01:55.697Z,2.2
2023-05-02T13:02:55.825Z,2.6
2023-05-02T13:03:55.760Z,2.3
2023-05-02T13:04:55.681Z,2.1
2023-05-02T13:05:55.696Z,2.1
2023-05-02T13:08:56.224Z,2.0
2023-05-02T13:09:55.690Z,2.2
2023-05-02T13:10:55.629Z,2.0
2023-05-02T13:11:55.663Z,2.0
2023-05-02T13:12:55.747Z,2.0
2023-05-02T13:13:55.715Z,2.1
2023-05-02T13:14:55.705Z,1.9
2023-05-02T13:15:55.712Z,1.8
2023-05-02T13:16:55.799Z,2.1
2023-05-02T13:17:55.762Z,1.8
2023-05-02T13:18:55.879Z,2.4
2023-05-02T13:20:01.637Z,1.4
2023-05-02T13:20:55.736Z,1.7
2023-05-02T13:21:55.846Z,1.8
2023-05-02T13:22:55.667Z,1.5
2023-05-02T13:23:55.667Z,1.6
2023-05-02T13:24:55.665Z,1.6
2023-05-02T13:25:55.673Z,2.2
2023-05-02T13:26:55.669Z,2.3
2023-05-02T13:27:55.621Z,1.8
2023-05-02T13:28:55.649Z,1.6
2023-05-02T13:29:55.667Z,1.6
2023-05-02T13:30:55.795Z,1.5
2023-05-02T13:31:55.719Z,1.5
2023-05-02T13:32:55.846Z,1.7
2023-05-02T13:33:55.660Z,1.5
2023-05-02T13:34:55.668Z,1.5
2023-05-02T13:35:55.716Z,1.3
2023-05-02T13:36:55.658Z,1.2
2023-05-02T13:37:55.633Z,1.3
2023-05-02T13:38:55.633Z,1.6
2023-05-02T13:39:56.833Z,2.0
2023-05-02T13:40:55.658Z,1.4
2023-05-02T13:41:55.595Z,1.7
2023-05-02T13:42:55.628Z,1.4
2023-05-02T13:43:55.685Z,1.5
2023-05-02T13:44:55.823Z,1.4
2023-05-02T13:45:55.652Z,1.2
2023-05-02T13:46:55.637Z,1.3
2023-05-02T13:47:55.673Z,1.3
2023-05-02T13:48:55.716Z,1.4
2023-05-02T13:49:55.635Z,1.3
2023-05-02T13:50:55.611Z,1.4
2023-05-02T13:51:55.603Z,1.5
2023-05-02T13:52:55.619Z,1.4
2023-05-02T13:54:04.077Z,2.1
2023-05-02T13:54:55.771Z,1.6
2023-05-02T13:55:55.776Z,1.5
2023-05-02T13:56:55.583Z,1.9
2023-05-02T13:57:55.603Z,1.4
2023-05-02T13:58:55.629Z,1.5
2023-05-02T13:59:55.704Z,1.6
2023-05-02T14:00:55.623Z,1.4
2023-05-02T14:01:55.690Z,1.5
2023-05-02T14:02:55.776Z,1.4
2023-05-02T14:03:55.737Z,1.5
2023-05-02T14:04:55.711Z,1.7
2023-05-02T14:05:55.617Z,1.8
2023-05-02T14:06:55.717Z,1.3
2023-05-02T14:07:55.682Z,1.9
2023-05-02T14:08:55.582Z,1.5
2023-05-02T14:09:55.613Z,1.9
2023-05-02T14:10:55.676Z,1.5
2023-05-02T14:11:55.569Z,1.6
2023-05-02T14:12:55.611Z,1.6
2023-05-02T14:13:55.656Z,1.5
2023-05-02T14:14:55.606Z,1.4
2023-05-02T14:15:55.870Z,1.5
2023-05-02T14:16:55.613Z,1.6
2023-05-02T14:17:55.672Z,1.5
2023-05-02T14:18:55.597Z,1.7
2023-05-02T14:19:55.599Z,1.7
2023-05-02T14:20:55.590Z,1.4
2023-05-02T14:21:55.636Z,1.8
2023-05-02T14:22:57.297Z,1.7
2023-05-02T14:23:55.634Z,1.8
2023-05-02T14:24:55.578Z,1.6
2023-05-02T14:25:55.581Z,1.4
2023-05-02T14:26:55.700Z,1.7
2023-05-02T14:27:55.590Z,1.3
2023-05-02T14:28:55.762Z,2.0
2023-05-02T14:29:55.608Z,1.6
2023-05-02T14:30:55.589Z,1.7
2023-05-02T14:31:55.874Z,1.8
2023-05-02T14:32:55.683Z,1.7
2023-05-02T14:33:55.598Z,1.5
2023-05-02T14:34:55.616Z,1.2
2023-05-02T14:35:55.618Z,1.8
2023-05-02T14:36:55.605Z,1.7
2023-05-02T14:37:55.571Z,2.0
2023-05-02T14:38:55.520Z,1.4
2023-05-02T14:39:55.549Z,1.3
2023-05-02T14:40:55.552Z,1.9
2023-05-02T14:41:55.586Z,1.7
2023-05-02T14:42:55.587Z,2.5
2023-05-02T14:43:55.566Z,1.7
2023-05-02T14:44:56.867Z,1.6
2023-05-02T14:45:55.726Z,1.3
2023-05-02T14:46:55.689Z,1.6
2023-05-02T14:47:55.690Z,1.4
2023-05-02T14:48:55.584Z,1.6
2023-05-02T14:49:55.588Z,1.6
2023-05-02T14:50:55.949Z,1.8
2023-05-02T14:51:56.374Z,1.4
2023-05-02T14:52:55.659Z,1.6
2023-05-02T14:53:55.584Z,1.5
2023-05-02T14:54:55.580Z,1.6
2023-05-02T14:55:55.530Z,1.6
2023-05-02T14:56:55.528Z,1.8
2023-05-02T14:57:56.147Z,1.8
2023-05-02T14:58:56.714Z,2.3
2023-05-02T14:59:55.622Z,2.3
2023-05-02T15:00:55.517Z,2.0
2023-05-02T15:04:06.156Z,1.9
2023-05-02T15:04:55.535Z,1.9
2023-05-02T15:05:55.597Z,1.7
2023-05-02T15:06:55.794Z,1.8
2023-05-02T15:07:55.519Z,2.1
2023-05-02T15:08:55.495Z,2.1
2023-05-02T15:09:55.671Z,2.2
2023-05-02T15:10:55.613Z,1.9
2023-05-02T15:11:55.517Z,2.2
2023-05-02T15:12:55.506Z,1.5
2023-05-02T15:13:57.469Z,1.6
2023-05-02T15:14:55.585Z,1.9
2023-05-02T15:15:55.568Z,1.4
2023-05-02T15:16:55.538Z,2.0
2023-05-02T15:17:55.498Z,1.9
2023-05-02T15:18:55.494Z,2.5
2023-05-02T15:19:57.810Z,2.5
2023-05-02T15:20:55.517Z,2.4
2023-05-02T15:21:55.488Z,2.8
2023-05-02T15:22:55.507Z,2.0
2023-05-02T15:23:55.516Z,2.0
2023-05-02T15:24:55.697Z,2.6
2023-05-02T15:25:55.563Z,2.3
2023-05-02T15:26:55.550Z,1.8
2023-05-02T15:27:55.518Z,1.9
2023-05-02T15:28:55.547Z,1.9
2023-05-02T15:29:55.527Z,2.2
2023-05-02T15:30:55.532Z,2.1
2023-05-02T15:31:55.532Z,2.0
2023-05-02T15:32:55.614Z,2.0
2023-05-02T15:33:55.507Z,1.9
2023-05-02T15:34:55.483Z,1.7
2023-05-02T15:35:55.743Z,2.1
2023-05-02T15:36:56.155Z,1.9
2023-05-02T15:37:55.523Z,1.9
2023-05-02T15:38:55.490Z,1.9
2023-05-02T15:39:55.531Z,2.2
2023-05-02T15:40:55.536Z,2.1
2023-05-02T15:41:55.526Z,1.9
2023-05-02T15:42:55.453Z,2.0
2023-05-02T15:43:55.531Z,2.1
2023-05-02T15:44:55.444Z,2.2
2023-05-02T15:45:55.620Z,2.1
2023-05-02T15:46:55.485Z,2.1
2023-05-02T15:47:55.515Z,1.9
2023-05-02T15:48:55.482Z,2.0
2023-05-02T15:49:55.666Z,2.1
2023-05-02T15:50:55.472Z,1.7
2023-05-02T15:51:55.555Z,3.9
2023-05-02T15:52:55.480Z,2.6
2023-05-02T15:53:55.529Z,2.4
2023-05-02T15:54:55.459Z,2.0
2023-05-02T15:55:55.435Z,2.3
2023-05-02T15:57:55.487Z,1.7
2023-05-02T15:58:55.472Z,2.4
2023-05-02T15:59:55.463Z,2.8
2023-05-02T16:00:55.506Z,2.5
2023-05-02T16:01:55.511Z,2.1
2023-05-02T16:02:55.563Z,3.0
2023-05-02T16:03:55.473Z,2.2
2023-05-02T16:04:55.605Z,2.3
2023-05-02T16:05:55.515Z,2.7
2023-05-02T16:07:14.188Z,2.2
2023-05-02T16:08:55.481Z,2.9
2023-05-02T16:09:55.434Z,2.3
2023-05-02T16:10:55.455Z,2.5
2023-05-02T16:11:55.406Z,2.1
2023-05-02T16:12:55.444Z,2.3
2023-05-02T16:13:55.524Z,2.4
2023-05-02T16:14:55.583Z,2.5
2023-05-02T16:15:55.460Z,2.5
2023-05-02T16:16:55.396Z,2.5
2023-05-02T16:17:55.437Z,1.9
2023-05-02T16:18:55.379Z,2.3
2023-05-02T16:19:55.442Z,2.0
2023-05-02T16:20:55.438Z,2.2
2023-05-02T16:21:55.439Z,2.1
2023-05-02T16:22:55.379Z,2.1
2023-05-02T16:23:55.405Z,2.2
2023-05-02T16:24:55.389Z,2.0
2023-05-02T16:25:55.430Z,2.2
2023-05-02T16:26:55.401Z,2.2
2023-05-02T16:27:55.421Z,2.5
2023-05-02T16:28:55.429Z,2.2
2023-05-02T16:29:55.599Z,8.1
2023-05-02T16:30:55.525Z,6.7
2023-05-02T16:31:55.547Z,2.9
2023-05-02T16:32:55.468Z,2.5
2023-05-02T16:33:55.416Z,2.4